<?xml version="1.0" encoding="UTF-8" standalone="no" ?>
<gpx xmlns="http://www.topografix.com/GPX/1/1" xmlns:xsi="http://www.w3.org/2001/XMLSchema-instance" xsi:schemaLocation="http://www.topografix.com/GPX/1/1 http://www.topografix.com/GPX/1/1/gpx.xsd" version="1.1" creator="VisuGPX - https://www.visugpx.com">
  <metadata>
    <name>Prepa 10km /3</name>
    <desc><![CDATA[Dur dur chaleur, déshydratation, fatigue Dur quoi !! et pourtant que 8.45 km  ]]></desc>
  </metadata>
  <trk>
    <name><![CDATA[Sequence 1]]></name>
    <trkseg>
      <trkpt lat="47.18837" lon="-1.68789">
        <ele>-1</ele>
        <time>2015-04-08T16:38:03Z</time>
      </trkpt>
      <trkpt lat="47.18827" lon="-1.6879">
        <ele>13</ele>
        <time>2015-04-08T16:38:07Z</time>
      </trkpt>
      <trkpt lat="47.18821" lon="-1.68781">
        <ele>11</ele>
        <time>2015-04-08T16:38:11Z</time>
      </trkpt>
      <trkpt lat="47.18816" lon="-1.6877">
        <ele>7</ele>
        <time>2015-04-08T16:38:14Z</time>
      </trkpt>
      <trkpt lat="47.18801" lon="-1.68743">
        <ele>12</ele>
        <time>2015-04-08T16:38:23Z</time>
      </trkpt>
      <trkpt lat="47.18799" lon="-1.68741">
        <ele>13</ele>
        <time>2015-04-08T16:38:24Z</time>
      </trkpt>
      <trkpt lat="47.18787" lon="-1.68718">
        <ele>7</ele>
        <time>2015-04-08T16:38:31Z</time>
      </trkpt>
      <trkpt lat="47.18774" lon="-1.68697">
        <ele>9</ele>
        <time>2015-04-08T16:38:37Z</time>
      </trkpt>
      <trkpt lat="47.18767" lon="-1.68684">
        <ele>15</ele>
        <time>2015-04-08T16:38:41Z</time>
      </trkpt>
      <trkpt lat="47.18762" lon="-1.68674">
        <ele>15</ele>
        <time>2015-04-08T16:38:44Z</time>
      </trkpt>
      <trkpt lat="47.18753" lon="-1.68657">
        <ele>16</ele>
        <time>2015-04-08T16:38:49Z</time>
      </trkpt>
      <trkpt lat="47.18739" lon="-1.68632">
        <ele>18</ele>
        <time>2015-04-08T16:38:56Z</time>
      </trkpt>
      <trkpt lat="47.18734" lon="-1.6862">
        <ele>18</ele>
        <time>2015-04-08T16:38:59Z</time>
      </trkpt>
      <trkpt lat="47.18724" lon="-1.68603">
        <ele>17</ele>
        <time>2015-04-08T16:39:04Z</time>
      </trkpt>
      <trkpt lat="47.18716" lon="-1.68587">
        <ele>19</ele>
        <time>2015-04-08T16:39:09Z</time>
      </trkpt>
      <trkpt lat="47.18705" lon="-1.68558">
        <ele>18</ele>
        <time>2015-04-08T16:39:17Z</time>
      </trkpt>
      <trkpt lat="47.18712" lon="-1.68555">
        <ele>14</ele>
        <time>2015-04-08T16:39:19Z</time>
      </trkpt>
      <trkpt lat="47.18727" lon="-1.68551">
        <ele>12</ele>
        <time>2015-04-08T16:39:24Z</time>
      </trkpt>
      <trkpt lat="47.18742" lon="-1.68544">
        <ele>15</ele>
        <time>2015-04-08T16:39:29Z</time>
      </trkpt>
      <trkpt lat="47.18765" lon="-1.68532">
        <ele>15</ele>
        <time>2015-04-08T16:39:38Z</time>
      </trkpt>
      <trkpt lat="47.18767" lon="-1.68531">
        <ele>15</ele>
        <time>2015-04-08T16:39:39Z</time>
      </trkpt>
      <trkpt lat="47.18785" lon="-1.68519">
        <ele>18</ele>
        <time>2015-04-08T16:39:47Z</time>
      </trkpt>
      <trkpt lat="47.188" lon="-1.68508">
        <ele>20</ele>
        <time>2015-04-08T16:39:53Z</time>
      </trkpt>
      <trkpt lat="47.18802" lon="-1.68507">
        <ele>21</ele>
        <time>2015-04-08T16:39:54Z</time>
      </trkpt>
      <trkpt lat="47.18816" lon="-1.68497">
        <ele>23</ele>
        <time>2015-04-08T16:39:59Z</time>
      </trkpt>
      <trkpt lat="47.18838" lon="-1.68484">
        <ele>24</ele>
        <time>2015-04-08T16:40:08Z</time>
      </trkpt>
      <trkpt lat="47.18841" lon="-1.68482">
        <ele>26</ele>
        <time>2015-04-08T16:40:09Z</time>
      </trkpt>
      <trkpt lat="47.18853" lon="-1.68476">
        <ele>27</ele>
        <time>2015-04-08T16:40:14Z</time>
      </trkpt>
      <trkpt lat="47.18866" lon="-1.68473">
        <ele>25</ele>
        <time>2015-04-08T16:40:19Z</time>
      </trkpt>
      <trkpt lat="47.18881" lon="-1.68461">
        <ele>26</ele>
        <time>2015-04-08T16:40:26Z</time>
      </trkpt>
      <trkpt lat="47.18886" lon="-1.68455">
        <ele>23</ele>
        <time>2015-04-08T16:40:29Z</time>
      </trkpt>
      <trkpt lat="47.18894" lon="-1.68447">
        <ele>25</ele>
        <time>2015-04-08T16:40:34Z</time>
      </trkpt>
      <trkpt lat="47.1891" lon="-1.68425">
        <ele>28</ele>
        <time>2015-04-08T16:40:43Z</time>
      </trkpt>
      <trkpt lat="47.18909" lon="-1.68417">
        <ele>26</ele>
        <time>2015-04-08T16:40:45Z</time>
      </trkpt>
      <trkpt lat="47.18905" lon="-1.68404">
        <ele>25</ele>
        <time>2015-04-08T16:40:49Z</time>
      </trkpt>
      <trkpt lat="47.18904" lon="-1.68385">
        <ele>25</ele>
        <time>2015-04-08T16:40:54Z</time>
      </trkpt>
      <trkpt lat="47.18911" lon="-1.68363">
        <ele>25</ele>
        <time>2015-04-08T16:41:00Z</time>
      </trkpt>
      <trkpt lat="47.18914" lon="-1.68351">
        <ele>23</ele>
        <time>2015-04-08T16:41:04Z</time>
      </trkpt>
      <trkpt lat="47.18911" lon="-1.68334">
        <ele>23</ele>
        <time>2015-04-08T16:41:09Z</time>
      </trkpt>
      <trkpt lat="47.18903" lon="-1.68316">
        <ele>23</ele>
        <time>2015-04-08T16:41:15Z</time>
      </trkpt>
      <trkpt lat="47.18891" lon="-1.68292">
        <ele>20</ele>
        <time>2015-04-08T16:41:23Z</time>
      </trkpt>
      <trkpt lat="47.18889" lon="-1.68289">
        <ele>20</ele>
        <time>2015-04-08T16:41:24Z</time>
      </trkpt>
      <trkpt lat="47.18879" lon="-1.68272">
        <ele>19</ele>
        <time>2015-04-08T16:41:30Z</time>
      </trkpt>
      <trkpt lat="47.18869" lon="-1.68258">
        <ele>21</ele>
        <time>2015-04-08T16:41:35Z</time>
      </trkpt>
      <trkpt lat="47.18859" lon="-1.68235">
        <ele>18</ele>
        <time>2015-04-08T16:41:42Z</time>
      </trkpt>
      <trkpt lat="47.18855" lon="-1.68228">
        <ele>20</ele>
        <time>2015-04-08T16:41:44Z</time>
      </trkpt>
      <trkpt lat="47.18836" lon="-1.68201">
        <ele>20</ele>
        <time>2015-04-08T16:41:53Z</time>
      </trkpt>
      <trkpt lat="47.18834" lon="-1.68198">
        <ele>20</ele>
        <time>2015-04-08T16:41:54Z</time>
      </trkpt>
      <trkpt lat="47.18824" lon="-1.6818">
        <ele>18</ele>
        <time>2015-04-08T16:41:59Z</time>
      </trkpt>
      <trkpt lat="47.18808" lon="-1.68145">
        <ele>16</ele>
        <time>2015-04-08T16:42:08Z</time>
      </trkpt>
      <trkpt lat="47.18806" lon="-1.68141">
        <ele>17</ele>
        <time>2015-04-08T16:42:09Z</time>
      </trkpt>
      <trkpt lat="47.18797" lon="-1.68123">
        <ele>19</ele>
        <time>2015-04-08T16:42:14Z</time>
      </trkpt>
      <trkpt lat="47.18788" lon="-1.68105">
        <ele>18</ele>
        <time>2015-04-08T16:42:19Z</time>
      </trkpt>
      <trkpt lat="47.18779" lon="-1.68087">
        <ele>17</ele>
        <time>2015-04-08T16:42:24Z</time>
      </trkpt>
      <trkpt lat="47.1877" lon="-1.68069">
        <ele>19</ele>
        <time>2015-04-08T16:42:29Z</time>
      </trkpt>
      <trkpt lat="47.18761" lon="-1.68052">
        <ele>21</ele>
        <time>2015-04-08T16:42:34Z</time>
      </trkpt>
      <trkpt lat="47.18751" lon="-1.68029">
        <ele>19</ele>
        <time>2015-04-08T16:42:41Z</time>
      </trkpt>
      <trkpt lat="47.18745" lon="-1.68007">
        <ele>17</ele>
        <time>2015-04-08T16:42:47Z</time>
      </trkpt>
      <trkpt lat="47.18743" lon="-1.67999">
        <ele>18</ele>
        <time>2015-04-08T16:42:49Z</time>
      </trkpt>
      <trkpt lat="47.18738" lon="-1.67982">
        <ele>19</ele>
        <time>2015-04-08T16:42:54Z</time>
      </trkpt>
      <trkpt lat="47.18726" lon="-1.6796">
        <ele>17</ele>
        <time>2015-04-08T16:43:01Z</time>
      </trkpt>
      <trkpt lat="47.18729" lon="-1.67949">
        <ele>18</ele>
        <time>2015-04-08T16:43:04Z</time>
      </trkpt>
      <trkpt lat="47.18726" lon="-1.67929">
        <ele>19</ele>
        <time>2015-04-08T16:43:09Z</time>
      </trkpt>
      <trkpt lat="47.1872" lon="-1.67905">
        <ele>19</ele>
        <time>2015-04-08T16:43:14Z</time>
      </trkpt>
      <trkpt lat="47.18714" lon="-1.67888">
        <ele>19</ele>
        <time>2015-04-08T16:43:19Z</time>
      </trkpt>
      <trkpt lat="47.18701" lon="-1.67858">
        <ele>21</ele>
        <time>2015-04-08T16:43:27Z</time>
      </trkpt>
      <trkpt lat="47.18695" lon="-1.67836">
        <ele>21</ele>
        <time>2015-04-08T16:43:33Z</time>
      </trkpt>
      <trkpt lat="47.18694" lon="-1.67832">
        <ele>21</ele>
        <time>2015-04-08T16:43:34Z</time>
      </trkpt>
      <trkpt lat="47.18685" lon="-1.67806">
        <ele>19</ele>
        <time>2015-04-08T16:43:40Z</time>
      </trkpt>
      <trkpt lat="47.18676" lon="-1.67777">
        <ele>18</ele>
        <time>2015-04-08T16:43:48Z</time>
      </trkpt>
      <trkpt lat="47.18674" lon="-1.6777">
        <ele>18</ele>
        <time>2015-04-08T16:43:50Z</time>
      </trkpt>
      <trkpt lat="47.18666" lon="-1.6775">
        <ele>16</ele>
        <time>2015-04-08T16:43:55Z</time>
      </trkpt>
      <trkpt lat="47.1866" lon="-1.67733">
        <ele>17</ele>
        <time>2015-04-08T16:44:00Z</time>
      </trkpt>
      <trkpt lat="47.18654" lon="-1.67702">
        <ele>26</ele>
        <time>2015-04-08T16:44:08Z</time>
      </trkpt>
      <trkpt lat="47.18652" lon="-1.67698">
        <ele>27</ele>
        <time>2015-04-08T16:44:09Z</time>
      </trkpt>
      <trkpt lat="47.1864" lon="-1.67679">
        <ele>28</ele>
        <time>2015-04-08T16:44:15Z</time>
      </trkpt>
      <trkpt lat="47.18633" lon="-1.67667">
        <ele>25</ele>
        <time>2015-04-08T16:44:19Z</time>
      </trkpt>
      <trkpt lat="47.1862" lon="-1.67642">
        <ele>25</ele>
        <time>2015-04-08T16:44:26Z</time>
      </trkpt>
      <trkpt lat="47.18616" lon="-1.67629">
        <ele>25</ele>
        <time>2015-04-08T16:44:29Z</time>
      </trkpt>
      <trkpt lat="47.18606" lon="-1.67609">
        <ele>24</ele>
        <time>2015-04-08T16:44:35Z</time>
      </trkpt>
      <trkpt lat="47.18596" lon="-1.67594">
        <ele>25</ele>
        <time>2015-04-08T16:44:40Z</time>
      </trkpt>
      <trkpt lat="47.18589" lon="-1.67582">
        <ele>24</ele>
        <time>2015-04-08T16:44:44Z</time>
      </trkpt>
      <trkpt lat="47.18579" lon="-1.67566">
        <ele>29</ele>
        <time>2015-04-08T16:44:49Z</time>
      </trkpt>
      <trkpt lat="47.18565" lon="-1.67533">
        <ele>30</ele>
        <time>2015-04-08T16:44:58Z</time>
      </trkpt>
      <trkpt lat="47.18564" lon="-1.67529">
        <ele>28</ele>
        <time>2015-04-08T16:44:59Z</time>
      </trkpt>
      <trkpt lat="47.18559" lon="-1.6751">
        <ele>27</ele>
        <time>2015-04-08T16:45:04Z</time>
      </trkpt>
      <trkpt lat="47.18553" lon="-1.67487">
        <ele>25</ele>
        <time>2015-04-08T16:45:10Z</time>
      </trkpt>
      <trkpt lat="47.18549" lon="-1.67468">
        <ele>23</ele>
        <time>2015-04-08T16:45:15Z</time>
      </trkpt>
      <trkpt lat="47.18543" lon="-1.6745">
        <ele>14</ele>
        <time>2015-04-08T16:45:20Z</time>
      </trkpt>
      <trkpt lat="47.1854" lon="-1.67437">
        <ele>13</ele>
        <time>2015-04-08T16:45:24Z</time>
      </trkpt>
      <trkpt lat="47.18537" lon="-1.67404">
        <ele>21</ele>
        <time>2015-04-08T16:45:32Z</time>
      </trkpt>
      <trkpt lat="47.18533" lon="-1.67394">
        <ele>15</ele>
        <time>2015-04-08T16:45:35Z</time>
      </trkpt>
      <trkpt lat="47.18529" lon="-1.6737">
        <ele>11</ele>
        <time>2015-04-08T16:45:41Z</time>
      </trkpt>
      <trkpt lat="47.18527" lon="-1.67359">
        <ele>12</ele>
        <time>2015-04-08T16:45:44Z</time>
      </trkpt>
      <trkpt lat="47.18522" lon="-1.67339">
        <ele>12</ele>
        <time>2015-04-08T16:45:49Z</time>
      </trkpt>
      <trkpt lat="47.18519" lon="-1.67307">
        <ele>12</ele>
        <time>2015-04-08T16:45:57Z</time>
      </trkpt>
      <trkpt lat="47.1852" lon="-1.673">
        <ele>10</ele>
        <time>2015-04-08T16:45:59Z</time>
      </trkpt>
      <trkpt lat="47.18516" lon="-1.6727">
        <ele>12</ele>
        <time>2015-04-08T16:46:07Z</time>
      </trkpt>
      <trkpt lat="47.18514" lon="-1.67258">
        <ele>13</ele>
        <time>2015-04-08T16:46:10Z</time>
      </trkpt>
      <trkpt lat="47.18512" lon="-1.67236">
        <ele>15</ele>
        <time>2015-04-08T16:46:15Z</time>
      </trkpt>
      <trkpt lat="47.18504" lon="-1.6721">
        <ele>20</ele>
        <time>2015-04-08T16:46:21Z</time>
      </trkpt>
      <trkpt lat="47.18501" lon="-1.67197">
        <ele>20</ele>
        <time>2015-04-08T16:46:24Z</time>
      </trkpt>
      <trkpt lat="47.18497" lon="-1.67177">
        <ele>19</ele>
        <time>2015-04-08T16:46:29Z</time>
      </trkpt>
      <trkpt lat="47.18493" lon="-1.67157">
        <ele>17</ele>
        <time>2015-04-08T16:46:35Z</time>
      </trkpt>
      <trkpt lat="47.1849" lon="-1.67142">
        <ele>16</ele>
        <time>2015-04-08T16:46:39Z</time>
      </trkpt>
      <trkpt lat="47.18487" lon="-1.6712">
        <ele>19</ele>
        <time>2015-04-08T16:46:45Z</time>
      </trkpt>
      <trkpt lat="47.18483" lon="-1.67105">
        <ele>19</ele>
        <time>2015-04-08T16:46:49Z</time>
      </trkpt>
      <trkpt lat="47.18477" lon="-1.67078">
        <ele>15</ele>
        <time>2015-04-08T16:46:54Z</time>
      </trkpt>
      <trkpt lat="47.18474" lon="-1.67056">
        <ele>18</ele>
        <time>2015-04-08T16:46:59Z</time>
      </trkpt>
      <trkpt lat="47.18471" lon="-1.67037">
        <ele>19</ele>
        <time>2015-04-08T16:47:04Z</time>
      </trkpt>
      <trkpt lat="47.1847" lon="-1.67007">
        <ele>17</ele>
        <time>2015-04-08T16:47:12Z</time>
      </trkpt>
      <trkpt lat="47.18469" lon="-1.67003">
        <ele>19</ele>
        <time>2015-04-08T16:47:14Z</time>
      </trkpt>
      <trkpt lat="47.18468" lon="-1.66987">
        <ele>14</ele>
        <time>2015-04-08T16:47:19Z</time>
      </trkpt>
      <trkpt lat="47.1847" lon="-1.6697">
        <ele>7</ele>
        <time>2015-04-08T16:47:24Z</time>
      </trkpt>
      <trkpt lat="47.18457" lon="-1.6694">
        <ele>10</ele>
        <time>2015-04-08T16:47:33Z</time>
      </trkpt>
      <trkpt lat="47.18454" lon="-1.66919">
        <ele>11</ele>
        <time>2015-04-08T16:47:38Z</time>
      </trkpt>
      <trkpt lat="47.18451" lon="-1.66906">
        <ele>10</ele>
        <time>2015-04-08T16:47:41Z</time>
      </trkpt>
      <trkpt lat="47.18443" lon="-1.66874">
        <ele>15</ele>
        <time>2015-04-08T16:47:48Z</time>
      </trkpt>
      <trkpt lat="47.18443" lon="-1.6687">
        <ele>16</ele>
        <time>2015-04-08T16:47:49Z</time>
      </trkpt>
      <trkpt lat="47.18439" lon="-1.66853">
        <ele>14</ele>
        <time>2015-04-08T16:47:54Z</time>
      </trkpt>
      <trkpt lat="47.18438" lon="-1.66837">
        <ele>10</ele>
        <time>2015-04-08T16:47:59Z</time>
      </trkpt>
      <trkpt lat="47.18434" lon="-1.66813">
        <ele>15</ele>
        <time>2015-04-08T16:48:06Z</time>
      </trkpt>
      <trkpt lat="47.18432" lon="-1.66802">
        <ele>18</ele>
        <time>2015-04-08T16:48:09Z</time>
      </trkpt>
      <trkpt lat="47.18428" lon="-1.66773">
        <ele>19</ele>
        <time>2015-04-08T16:48:16Z</time>
      </trkpt>
      <trkpt lat="47.18426" lon="-1.66762">
        <ele>20</ele>
        <time>2015-04-08T16:48:19Z</time>
      </trkpt>
      <trkpt lat="47.18419" lon="-1.66736">
        <ele>29</ele>
        <time>2015-04-08T16:48:26Z</time>
      </trkpt>
      <trkpt lat="47.18417" lon="-1.66724">
        <ele>33</ele>
        <time>2015-04-08T16:48:29Z</time>
      </trkpt>
      <trkpt lat="47.18411" lon="-1.66702">
        <ele>37</ele>
        <time>2015-04-08T16:48:35Z</time>
      </trkpt>
      <trkpt lat="47.18408" lon="-1.66685">
        <ele>39</ele>
        <time>2015-04-08T16:48:39Z</time>
      </trkpt>
      <trkpt lat="47.18403" lon="-1.66668">
        <ele>40</ele>
        <time>2015-04-08T16:48:44Z</time>
      </trkpt>
      <trkpt lat="47.18396" lon="-1.66638">
        <ele>46</ele>
        <time>2015-04-08T16:48:51Z</time>
      </trkpt>
      <trkpt lat="47.18395" lon="-1.66626">
        <ele>44</ele>
        <time>2015-04-08T16:48:54Z</time>
      </trkpt>
      <trkpt lat="47.18389" lon="-1.66609">
        <ele>43</ele>
        <time>2015-04-08T16:48:59Z</time>
      </trkpt>
      <trkpt lat="47.18389" lon="-1.6658">
        <ele>45</ele>
        <time>2015-04-08T16:49:08Z</time>
      </trkpt>
      <trkpt lat="47.18389" lon="-1.66564">
        <ele>42</ele>
        <time>2015-04-08T16:49:12Z</time>
      </trkpt>
      <trkpt lat="47.18389" lon="-1.66548">
        <ele>38</ele>
        <time>2015-04-08T16:49:16Z</time>
      </trkpt>
      <trkpt lat="47.18389" lon="-1.66518">
        <ele>33</ele>
        <time>2015-04-08T16:49:23Z</time>
      </trkpt>
      <trkpt lat="47.18389" lon="-1.66509">
        <ele>31</ele>
        <time>2015-04-08T16:49:25Z</time>
      </trkpt>
      <trkpt lat="47.18385" lon="-1.66481">
        <ele>29</ele>
        <time>2015-04-08T16:49:32Z</time>
      </trkpt>
      <trkpt lat="47.1838" lon="-1.66457">
        <ele>28</ele>
        <time>2015-04-08T16:49:38Z</time>
      </trkpt>
      <trkpt lat="47.18379" lon="-1.66453">
        <ele>27</ele>
        <time>2015-04-08T16:49:39Z</time>
      </trkpt>
      <trkpt lat="47.18371" lon="-1.66442">
        <ele>26</ele>
        <time>2015-04-08T16:49:44Z</time>
      </trkpt>
      <trkpt lat="47.18363" lon="-1.66426">
        <ele>28</ele>
        <time>2015-04-08T16:49:49Z</time>
      </trkpt>
      <trkpt lat="47.18355" lon="-1.66407">
        <ele>32</ele>
        <time>2015-04-08T16:49:55Z</time>
      </trkpt>
      <trkpt lat="47.18342" lon="-1.66379">
        <ele>28</ele>
        <time>2015-04-08T16:50:03Z</time>
      </trkpt>
      <trkpt lat="47.18341" lon="-1.66376">
        <ele>29</ele>
        <time>2015-04-08T16:50:04Z</time>
      </trkpt>
      <trkpt lat="47.18332" lon="-1.66357">
        <ele>28</ele>
        <time>2015-04-08T16:50:09Z</time>
      </trkpt>
      <trkpt lat="47.18324" lon="-1.66338">
        <ele>28</ele>
        <time>2015-04-08T16:50:14Z</time>
      </trkpt>
      <trkpt lat="47.18315" lon="-1.66321">
        <ele>26</ele>
        <time>2015-04-08T16:50:19Z</time>
      </trkpt>
      <trkpt lat="47.18302" lon="-1.66297">
        <ele>25</ele>
        <time>2015-04-08T16:50:27Z</time>
      </trkpt>
      <trkpt lat="47.18299" lon="-1.66289">
        <ele>25</ele>
        <time>2015-04-08T16:50:29Z</time>
      </trkpt>
      <trkpt lat="47.18285" lon="-1.66288">
        <ele>26</ele>
        <time>2015-04-08T16:50:34Z</time>
      </trkpt>
      <trkpt lat="47.18269" lon="-1.66302">
        <ele>36</ele>
        <time>2015-04-08T16:50:41Z</time>
      </trkpt>
      <trkpt lat="47.18254" lon="-1.66315">
        <ele>38</ele>
        <time>2015-04-08T16:50:47Z</time>
      </trkpt>
      <trkpt lat="47.18249" lon="-1.6632">
        <ele>39</ele>
        <time>2015-04-08T16:50:49Z</time>
      </trkpt>
      <trkpt lat="47.18228" lon="-1.66333">
        <ele>39</ele>
        <time>2015-04-08T16:50:56Z</time>
      </trkpt>
      <trkpt lat="47.1821" lon="-1.66349">
        <ele>38</ele>
        <time>2015-04-08T16:51:03Z</time>
      </trkpt>
      <trkpt lat="47.18199" lon="-1.66356">
        <ele>39</ele>
        <time>2015-04-08T16:51:08Z</time>
      </trkpt>
      <trkpt lat="47.18192" lon="-1.66367">
        <ele>38</ele>
        <time>2015-04-08T16:51:12Z</time>
      </trkpt>
      <trkpt lat="47.18182" lon="-1.66382">
        <ele>40</ele>
        <time>2015-04-08T16:51:18Z</time>
      </trkpt>
      <trkpt lat="47.1818" lon="-1.66383">
        <ele>38</ele>
        <time>2015-04-08T16:51:19Z</time>
      </trkpt>
      <trkpt lat="47.18181" lon="-1.66388">
        <ele>28</ele>
        <time>2015-04-08T16:51:24Z</time>
      </trkpt>
      <trkpt lat="47.1819" lon="-1.66396">
        <ele>29</ele>
        <time>2015-04-08T16:51:29Z</time>
      </trkpt>
      <trkpt lat="47.18207" lon="-1.66417">
        <ele>20</ele>
        <time>2015-04-08T16:51:38Z</time>
      </trkpt>
      <trkpt lat="47.1821" lon="-1.66418">
        <ele>20</ele>
        <time>2015-04-08T16:51:39Z</time>
      </trkpt>
      <trkpt lat="47.18218" lon="-1.66424">
        <ele>17</ele>
        <time>2015-04-08T16:51:44Z</time>
      </trkpt>
      <trkpt lat="47.18237" lon="-1.6644">
        <ele>17</ele>
        <time>2015-04-08T16:51:52Z</time>
      </trkpt>
      <trkpt lat="47.18243" lon="-1.66443">
        <ele>19</ele>
        <time>2015-04-08T16:51:54Z</time>
      </trkpt>
      <trkpt lat="47.18275" lon="-1.66456">
        <ele>21</ele>
        <time>2015-04-08T16:52:03Z</time>
      </trkpt>
      <trkpt lat="47.18284" lon="-1.66464">
        <ele>18</ele>
        <time>2015-04-08T16:52:06Z</time>
      </trkpt>
      <trkpt lat="47.1827" lon="-1.66479">
        <ele>15</ele>
        <time>2015-04-08T16:52:12Z</time>
      </trkpt>
      <trkpt lat="47.18259" lon="-1.66486">
        <ele>14</ele>
        <time>2015-04-08T16:52:16Z</time>
      </trkpt>
      <trkpt lat="47.18243" lon="-1.66497">
        <ele>13</ele>
        <time>2015-04-08T16:52:22Z</time>
      </trkpt>
      <trkpt lat="47.18239" lon="-1.665">
        <ele>14</ele>
        <time>2015-04-08T16:52:24Z</time>
      </trkpt>
      <trkpt lat="47.18225" lon="-1.66503">
        <ele>14</ele>
        <time>2015-04-08T16:52:29Z</time>
      </trkpt>
      <trkpt lat="47.182" lon="-1.66507">
        <ele>18</ele>
        <time>2015-04-08T16:52:37Z</time>
      </trkpt>
      <trkpt lat="47.18195" lon="-1.66508">
        <ele>19</ele>
        <time>2015-04-08T16:52:39Z</time>
      </trkpt>
      <trkpt lat="47.18171" lon="-1.66523">
        <ele>19</ele>
        <time>2015-04-08T16:52:48Z</time>
      </trkpt>
      <trkpt lat="47.18158" lon="-1.66535">
        <ele>19</ele>
        <time>2015-04-08T16:52:52Z</time>
      </trkpt>
      <trkpt lat="47.1815" lon="-1.66538">
        <ele>20</ele>
        <time>2015-04-08T16:52:55Z</time>
      </trkpt>
      <trkpt lat="47.18132" lon="-1.66546">
        <ele>20</ele>
        <time>2015-04-08T16:53:02Z</time>
      </trkpt>
      <trkpt lat="47.18127" lon="-1.66548">
        <ele>19</ele>
        <time>2015-04-08T16:53:04Z</time>
      </trkpt>
      <trkpt lat="47.18115" lon="-1.66559">
        <ele>23</ele>
        <time>2015-04-08T16:53:09Z</time>
      </trkpt>
      <trkpt lat="47.18101" lon="-1.66571">
        <ele>21</ele>
        <time>2015-04-08T16:53:15Z</time>
      </trkpt>
      <trkpt lat="47.18091" lon="-1.66577">
        <ele>19</ele>
        <time>2015-04-08T16:53:19Z</time>
      </trkpt>
      <trkpt lat="47.18077" lon="-1.66587">
        <ele>24</ele>
        <time>2015-04-08T16:53:25Z</time>
      </trkpt>
      <trkpt lat="47.18066" lon="-1.66591">
        <ele>27</ele>
        <time>2015-04-08T16:53:29Z</time>
      </trkpt>
      <trkpt lat="47.18051" lon="-1.66599">
        <ele>25</ele>
        <time>2015-04-08T16:53:34Z</time>
      </trkpt>
      <trkpt lat="47.18031" lon="-1.66613">
        <ele>26</ele>
        <time>2015-04-08T16:53:41Z</time>
      </trkpt>
      <trkpt lat="47.18017" lon="-1.66618">
        <ele>27</ele>
        <time>2015-04-08T16:53:47Z</time>
      </trkpt>
      <trkpt lat="47.18012" lon="-1.6662">
        <ele>29</ele>
        <time>2015-04-08T16:53:49Z</time>
      </trkpt>
      <trkpt lat="47.18001" lon="-1.66624">
        <ele>35</ele>
        <time>2015-04-08T16:53:54Z</time>
      </trkpt>
      <trkpt lat="47.17988" lon="-1.66626">
        <ele>34</ele>
        <time>2015-04-08T16:53:59Z</time>
      </trkpt>
      <trkpt lat="47.17972" lon="-1.66625">
        <ele>33</ele>
        <time>2015-04-08T16:54:05Z</time>
      </trkpt>
      <trkpt lat="47.17959" lon="-1.66628">
        <ele>38</ele>
        <time>2015-04-08T16:54:11Z</time>
      </trkpt>
      <trkpt lat="47.17949" lon="-1.66633">
        <ele>35</ele>
        <time>2015-04-08T16:54:15Z</time>
      </trkpt>
      <trkpt lat="47.17935" lon="-1.66641">
        <ele>35</ele>
        <time>2015-04-08T16:54:20Z</time>
      </trkpt>
      <trkpt lat="47.17925" lon="-1.66642">
        <ele>35</ele>
        <time>2015-04-08T16:54:24Z</time>
      </trkpt>
      <trkpt lat="47.17906" lon="-1.66644">
        <ele>32</ele>
        <time>2015-04-08T16:54:30Z</time>
      </trkpt>
      <trkpt lat="47.17895" lon="-1.66652">
        <ele>31</ele>
        <time>2015-04-08T16:54:34Z</time>
      </trkpt>
      <trkpt lat="47.17883" lon="-1.66664">
        <ele>31</ele>
        <time>2015-04-08T16:54:39Z</time>
      </trkpt>
      <trkpt lat="47.1787" lon="-1.6667">
        <ele>31</ele>
        <time>2015-04-08T16:54:44Z</time>
      </trkpt>
      <trkpt lat="47.17858" lon="-1.6668">
        <ele>34</ele>
        <time>2015-04-08T16:54:49Z</time>
      </trkpt>
      <trkpt lat="47.17847" lon="-1.66688">
        <ele>32</ele>
        <time>2015-04-08T16:54:54Z</time>
      </trkpt>
      <trkpt lat="47.1783" lon="-1.66696">
        <ele>31</ele>
        <time>2015-04-08T16:55:01Z</time>
      </trkpt>
      <trkpt lat="47.17823" lon="-1.66701">
        <ele>33</ele>
        <time>2015-04-08T16:55:04Z</time>
      </trkpt>
      <trkpt lat="47.17808" lon="-1.66711">
        <ele>33</ele>
        <time>2015-04-08T16:55:10Z</time>
      </trkpt>
      <trkpt lat="47.17794" lon="-1.6672">
        <ele>35</ele>
        <time>2015-04-08T16:55:15Z</time>
      </trkpt>
      <trkpt lat="47.17783" lon="-1.66726">
        <ele>33</ele>
        <time>2015-04-08T16:55:19Z</time>
      </trkpt>
      <trkpt lat="47.17759" lon="-1.66739">
        <ele>30</ele>
        <time>2015-04-08T16:55:27Z</time>
      </trkpt>
      <trkpt lat="47.17755" lon="-1.66743">
        <ele>29</ele>
        <time>2015-04-08T16:55:29Z</time>
      </trkpt>
      <trkpt lat="47.17746" lon="-1.66752">
        <ele>20</ele>
        <time>2015-04-08T16:55:34Z</time>
      </trkpt>
      <trkpt lat="47.17725" lon="-1.66775">
        <ele>15</ele>
        <time>2015-04-08T16:55:43Z</time>
      </trkpt>
      <trkpt lat="47.17722" lon="-1.66776">
        <ele>16</ele>
        <time>2015-04-08T16:55:44Z</time>
      </trkpt>
      <trkpt lat="47.17709" lon="-1.66786">
        <ele>16</ele>
        <time>2015-04-08T16:55:50Z</time>
      </trkpt>
      <trkpt lat="47.17693" lon="-1.66802">
        <ele>10</ele>
        <time>2015-04-08T16:55:57Z</time>
      </trkpt>
      <trkpt lat="47.17689" lon="-1.66806">
        <ele>8</ele>
        <time>2015-04-08T16:55:59Z</time>
      </trkpt>
      <trkpt lat="47.17679" lon="-1.66816">
        <ele>10</ele>
        <time>2015-04-08T16:56:04Z</time>
      </trkpt>
      <trkpt lat="47.17663" lon="-1.66836">
        <ele>16</ele>
        <time>2015-04-08T16:56:11Z</time>
      </trkpt>
      <trkpt lat="47.1765" lon="-1.66851">
        <ele>16</ele>
        <time>2015-04-08T16:56:18Z</time>
      </trkpt>
      <trkpt lat="47.17637" lon="-1.66858">
        <ele>16</ele>
        <time>2015-04-08T16:56:23Z</time>
      </trkpt>
      <trkpt lat="47.17633" lon="-1.66862">
        <ele>17</ele>
        <time>2015-04-08T16:56:25Z</time>
      </trkpt>
      <trkpt lat="47.17623" lon="-1.66881">
        <ele>15</ele>
        <time>2015-04-08T16:56:31Z</time>
      </trkpt>
      <trkpt lat="47.17634" lon="-1.66902">
        <ele>7</ele>
        <time>2015-04-08T16:56:38Z</time>
      </trkpt>
      <trkpt lat="47.17636" lon="-1.66905">
        <ele>7</ele>
        <time>2015-04-08T16:56:39Z</time>
      </trkpt>
      <trkpt lat="47.17646" lon="-1.66925">
        <ele>6</ele>
        <time>2015-04-08T16:56:46Z</time>
      </trkpt>
      <trkpt lat="47.17658" lon="-1.66945">
        <ele>3</ele>
        <time>2015-04-08T16:56:53Z</time>
      </trkpt>
      <trkpt lat="47.1766" lon="-1.66948">
        <ele>3</ele>
        <time>2015-04-08T16:56:54Z</time>
      </trkpt>
      <trkpt lat="47.17667" lon="-1.66963">
        <ele>-1</ele>
        <time>2015-04-08T16:56:59Z</time>
      </trkpt>
      <trkpt lat="47.17675" lon="-1.66976">
        <ele>-1</ele>
        <time>2015-04-08T16:57:04Z</time>
      </trkpt>
      <trkpt lat="47.17681" lon="-1.66991">
        <ele>-3</ele>
        <time>2015-04-08T16:57:09Z</time>
      </trkpt>
      <trkpt lat="47.17728" lon="-1.67081">
        <ele>34</ele>
        <time>2015-04-08T16:57:39Z</time>
      </trkpt>
      <trkpt lat="47.17737" lon="-1.67097">
        <ele>-1</ele>
        <time>2015-04-08T16:57:44Z</time>
      </trkpt>
      <trkpt lat="47.17738" lon="-1.67103">
        <ele>34</ele>
        <time>2015-04-08T16:57:46Z</time>
      </trkpt>
      <trkpt lat="47.178" lon="-1.67202">
        <ele>12</ele>
        <time>2015-04-08T16:58:19Z</time>
      </trkpt>
      <trkpt lat="47.17802" lon="-1.67204">
        <ele>13</ele>
        <time>2015-04-08T16:58:20Z</time>
      </trkpt>
      <trkpt lat="47.17807" lon="-1.67216">
        <ele>10</ele>
        <time>2015-04-08T16:58:25Z</time>
      </trkpt>
      <trkpt lat="47.17822" lon="-1.67252">
        <ele>-2</ele>
        <time>2015-04-08T16:58:35Z</time>
      </trkpt>
      <trkpt lat="47.17921" lon="-1.67451">
        <ele>11</ele>
        <time>2015-04-08T16:59:39Z</time>
      </trkpt>
      <trkpt lat="47.17924" lon="-1.67471">
        <ele>11</ele>
        <time>2015-04-08T16:59:45Z</time>
      </trkpt>
      <trkpt lat="47.17929" lon="-1.67492">
        <ele>9</ele>
        <time>2015-04-08T16:59:50Z</time>
      </trkpt>
      <trkpt lat="47.17929" lon="-1.67501">
        <ele>7</ele>
        <time>2015-04-08T16:59:52Z</time>
      </trkpt>
      <trkpt lat="47.17934" lon="-1.67521">
        <ele>3</ele>
        <time>2015-04-08T16:59:57Z</time>
      </trkpt>
      <trkpt lat="47.17938" lon="-1.67534">
        <ele>3</ele>
        <time>2015-04-08T17:00:01Z</time>
      </trkpt>
      <trkpt lat="47.17942" lon="-1.67551">
        <ele>3</ele>
        <time>2015-04-08T17:00:06Z</time>
      </trkpt>
      <trkpt lat="47.17954" lon="-1.6758">
        <ele>3</ele>
        <time>2015-04-08T17:00:15Z</time>
      </trkpt>
      <trkpt lat="47.17955" lon="-1.67588">
        <ele>3</ele>
        <time>2015-04-08T17:00:17Z</time>
      </trkpt>
      <trkpt lat="47.17958" lon="-1.67604">
        <ele>3</ele>
        <time>2015-04-08T17:00:21Z</time>
      </trkpt>
      <trkpt lat="47.17958" lon="-1.67623">
        <ele>-1</ele>
        <time>2015-04-08T17:00:26Z</time>
      </trkpt>
      <trkpt lat="47.17962" lon="-1.67638">
        <ele>-2</ele>
        <time>2015-04-08T17:00:31Z</time>
      </trkpt>
      <trkpt lat="47.17968" lon="-1.67657">
        <ele>33</ele>
        <time>2015-04-08T17:00:36Z</time>
      </trkpt>
      <trkpt lat="47.17982" lon="-1.67681">
        <ele>1</ele>
        <time>2015-04-08T17:00:43Z</time>
      </trkpt>
      <trkpt lat="47.17987" lon="-1.67705">
        <ele>1</ele>
        <time>2015-04-08T17:00:49Z</time>
      </trkpt>
      <trkpt lat="47.17986" lon="-1.67717">
        <ele>-2</ele>
        <time>2015-04-08T17:00:52Z</time>
      </trkpt>
      <trkpt lat="47.17976" lon="-1.67741">
        <ele>-2</ele>
        <time>2015-04-08T17:00:58Z</time>
      </trkpt>
      <trkpt lat="47.1797" lon="-1.67751">
        <ele>-3</ele>
        <time>2015-04-08T17:01:01Z</time>
      </trkpt>
      <trkpt lat="47.17945" lon="-1.67761">
        <ele>3</ele>
        <time>2015-04-08T17:01:09Z</time>
      </trkpt>
      <trkpt lat="47.17939" lon="-1.67764">
        <ele>4</ele>
        <time>2015-04-08T17:01:11Z</time>
      </trkpt>
      <trkpt lat="47.17924" lon="-1.67774">
        <ele>8</ele>
        <time>2015-04-08T17:01:18Z</time>
      </trkpt>
      <trkpt lat="47.1791" lon="-1.67782">
        <ele>6</ele>
        <time>2015-04-08T17:01:24Z</time>
      </trkpt>
      <trkpt lat="47.17895" lon="-1.67791">
        <ele>4</ele>
        <time>2015-04-08T17:01:30Z</time>
      </trkpt>
      <trkpt lat="47.17893" lon="-1.67793">
        <ele>3</ele>
        <time>2015-04-08T17:01:31Z</time>
      </trkpt>
      <trkpt lat="47.17881" lon="-1.67801">
        <ele>1</ele>
        <time>2015-04-08T17:01:37Z</time>
      </trkpt>
      <trkpt lat="47.17871" lon="-1.67805">
        <ele>34</ele>
        <time>2015-04-08T17:01:42Z</time>
      </trkpt>
      <trkpt lat="47.17853" lon="-1.67814">
        <ele>2</ele>
        <time>2015-04-08T17:01:49Z</time>
      </trkpt>
      <trkpt lat="47.17848" lon="-1.67817">
        <ele>2</ele>
        <time>2015-04-08T17:01:51Z</time>
      </trkpt>
      <trkpt lat="47.17834" lon="-1.67828">
        <ele>1</ele>
        <time>2015-04-08T17:01:57Z</time>
      </trkpt>
      <trkpt lat="47.17824" lon="-1.67834">
        <ele>3</ele>
        <time>2015-04-08T17:02:01Z</time>
      </trkpt>
      <trkpt lat="47.1781" lon="-1.67842">
        <ele>8</ele>
        <time>2015-04-08T17:02:06Z</time>
      </trkpt>
      <trkpt lat="47.17798" lon="-1.6785">
        <ele>9</ele>
        <time>2015-04-08T17:02:11Z</time>
      </trkpt>
      <trkpt lat="47.17787" lon="-1.67857">
        <ele>18</ele>
        <time>2015-04-08T17:02:16Z</time>
      </trkpt>
      <trkpt lat="47.17765" lon="-1.67868">
        <ele>31</ele>
        <time>2015-04-08T17:02:25Z</time>
      </trkpt>
      <trkpt lat="47.17759" lon="-1.67878">
        <ele>32</ele>
        <time>2015-04-08T17:02:29Z</time>
      </trkpt>
      <trkpt lat="47.17754" lon="-1.67884">
        <ele>36</ele>
        <time>2015-04-08T17:02:32Z</time>
      </trkpt>
      <trkpt lat="47.17747" lon="-1.67892">
        <ele>36</ele>
        <time>2015-04-08T17:02:36Z</time>
      </trkpt>
      <trkpt lat="47.17733" lon="-1.679">
        <ele>37</ele>
        <time>2015-04-08T17:02:42Z</time>
      </trkpt>
      <trkpt lat="47.17723" lon="-1.67908">
        <ele>38</ele>
        <time>2015-04-08T17:02:46Z</time>
      </trkpt>
      <trkpt lat="47.17709" lon="-1.67917">
        <ele>35</ele>
        <time>2015-04-08T17:02:52Z</time>
      </trkpt>
      <trkpt lat="47.17691" lon="-1.67926">
        <ele>37</ele>
        <time>2015-04-08T17:03:00Z</time>
      </trkpt>
      <trkpt lat="47.17685" lon="-1.67931">
        <ele>35</ele>
        <time>2015-04-08T17:03:03Z</time>
      </trkpt>
      <trkpt lat="47.17682" lon="-1.6794">
        <ele>33</ele>
        <time>2015-04-08T17:03:06Z</time>
      </trkpt>
      <trkpt lat="47.17681" lon="-1.67959">
        <ele>29</ele>
        <time>2015-04-08T17:03:11Z</time>
      </trkpt>
      <trkpt lat="47.17677" lon="-1.67983">
        <ele>29</ele>
        <time>2015-04-08T17:03:17Z</time>
      </trkpt>
      <trkpt lat="47.17683" lon="-1.67997">
        <ele>30</ele>
        <time>2015-04-08T17:03:21Z</time>
      </trkpt>
      <trkpt lat="47.17693" lon="-1.6802">
        <ele>28</ele>
        <time>2015-04-08T17:03:28Z</time>
      </trkpt>
      <trkpt lat="47.17698" lon="-1.68029">
        <ele>31</ele>
        <time>2015-04-08T17:03:31Z</time>
      </trkpt>
      <trkpt lat="47.17717" lon="-1.68045">
        <ele>32</ele>
        <time>2015-04-08T17:03:40Z</time>
      </trkpt>
      <trkpt lat="47.17719" lon="-1.68048">
        <ele>32</ele>
        <time>2015-04-08T17:03:41Z</time>
      </trkpt>
      <trkpt lat="47.17735" lon="-1.68046">
        <ele>31</ele>
        <time>2015-04-08T17:03:48Z</time>
      </trkpt>
      <trkpt lat="47.17743" lon="-1.6804">
        <ele>33</ele>
        <time>2015-04-08T17:03:51Z</time>
      </trkpt>
      <trkpt lat="47.1776" lon="-1.68031">
        <ele>34</ele>
        <time>2015-04-08T17:03:58Z</time>
      </trkpt>
      <trkpt lat="47.17768" lon="-1.6803">
        <ele>35</ele>
        <time>2015-04-08T17:04:01Z</time>
      </trkpt>
      <trkpt lat="47.17779" lon="-1.68021">
        <ele>36</ele>
        <time>2015-04-08T17:04:06Z</time>
      </trkpt>
      <trkpt lat="47.17791" lon="-1.68013">
        <ele>36</ele>
        <time>2015-04-08T17:04:11Z</time>
      </trkpt>
      <trkpt lat="47.17802" lon="-1.68004">
        <ele>37</ele>
        <time>2015-04-08T17:04:16Z</time>
      </trkpt>
      <trkpt lat="47.17818" lon="-1.67993">
        <ele>34</ele>
        <time>2015-04-08T17:04:23Z</time>
      </trkpt>
      <trkpt lat="47.1783" lon="-1.67984">
        <ele>33</ele>
        <time>2015-04-08T17:04:28Z</time>
      </trkpt>
      <trkpt lat="47.17837" lon="-1.67978">
        <ele>33</ele>
        <time>2015-04-08T17:04:31Z</time>
      </trkpt>
      <trkpt lat="47.1785" lon="-1.67972">
        <ele>34</ele>
        <time>2015-04-08T17:04:36Z</time>
      </trkpt>
      <trkpt lat="47.17862" lon="-1.67964">
        <ele>31</ele>
        <time>2015-04-08T17:04:41Z</time>
      </trkpt>
      <trkpt lat="47.1788" lon="-1.67956">
        <ele>30</ele>
        <time>2015-04-08T17:04:49Z</time>
      </trkpt>
      <trkpt lat="47.17896" lon="-1.67943">
        <ele>34</ele>
        <time>2015-04-08T17:04:55Z</time>
      </trkpt>
      <trkpt lat="47.17907" lon="-1.6794">
        <ele>30</ele>
        <time>2015-04-08T17:04:59Z</time>
      </trkpt>
      <trkpt lat="47.17911" lon="-1.6794">
        <ele>28</ele>
        <time>2015-04-08T17:05:01Z</time>
      </trkpt>
      <trkpt lat="47.17922" lon="-1.67935">
        <ele>31</ele>
        <time>2015-04-08T17:05:06Z</time>
      </trkpt>
      <trkpt lat="47.17936" lon="-1.67925">
        <ele>30</ele>
        <time>2015-04-08T17:05:11Z</time>
      </trkpt>
      <trkpt lat="47.1795" lon="-1.67918">
        <ele>28</ele>
        <time>2015-04-08T17:05:17Z</time>
      </trkpt>
      <trkpt lat="47.17964" lon="-1.67914">
        <ele>29</ele>
        <time>2015-04-08T17:05:23Z</time>
      </trkpt>
      <trkpt lat="47.17971" lon="-1.67912">
        <ele>29</ele>
        <time>2015-04-08T17:05:26Z</time>
      </trkpt>
      <trkpt lat="47.17983" lon="-1.67904">
        <ele>30</ele>
        <time>2015-04-08T17:05:31Z</time>
      </trkpt>
      <trkpt lat="47.18005" lon="-1.679">
        <ele>32</ele>
        <time>2015-04-08T17:05:39Z</time>
      </trkpt>
      <trkpt lat="47.18011" lon="-1.67915">
        <ele>30</ele>
        <time>2015-04-08T17:05:43Z</time>
      </trkpt>
      <trkpt lat="47.18016" lon="-1.67924">
        <ele>27</ele>
        <time>2015-04-08T17:05:46Z</time>
      </trkpt>
      <trkpt lat="47.18026" lon="-1.67942">
        <ele>24</ele>
        <time>2015-04-08T17:05:52Z</time>
      </trkpt>
      <trkpt lat="47.18036" lon="-1.67961">
        <ele>25</ele>
        <time>2015-04-08T17:05:58Z</time>
      </trkpt>
      <trkpt lat="47.18041" lon="-1.6797">
        <ele>22</ele>
        <time>2015-04-08T17:06:01Z</time>
      </trkpt>
      <trkpt lat="47.18051" lon="-1.67986">
        <ele>23</ele>
        <time>2015-04-08T17:06:07Z</time>
      </trkpt>
      <trkpt lat="47.18063" lon="-1.68009">
        <ele>23</ele>
        <time>2015-04-08T17:06:15Z</time>
      </trkpt>
      <trkpt lat="47.18068" lon="-1.68018">
        <ele>22</ele>
        <time>2015-04-08T17:06:18Z</time>
      </trkpt>
      <trkpt lat="47.18072" lon="-1.68027">
        <ele>22</ele>
        <time>2015-04-08T17:06:21Z</time>
      </trkpt>
      <trkpt lat="47.18083" lon="-1.68045">
        <ele>23</ele>
        <time>2015-04-08T17:06:27Z</time>
      </trkpt>
      <trkpt lat="47.18091" lon="-1.68059">
        <ele>24</ele>
        <time>2015-04-08T17:06:32Z</time>
      </trkpt>
      <trkpt lat="47.18106" lon="-1.68084">
        <ele>25</ele>
        <time>2015-04-08T17:06:40Z</time>
      </trkpt>
      <trkpt lat="47.18107" lon="-1.68087">
        <ele>24</ele>
        <time>2015-04-08T17:06:41Z</time>
      </trkpt>
      <trkpt lat="47.18116" lon="-1.68102">
        <ele>21</ele>
        <time>2015-04-08T17:06:46Z</time>
      </trkpt>
      <trkpt lat="47.18128" lon="-1.68124">
        <ele>22</ele>
        <time>2015-04-08T17:06:53Z</time>
      </trkpt>
      <trkpt lat="47.18141" lon="-1.68145">
        <ele>24</ele>
        <time>2015-04-08T17:07:00Z</time>
      </trkpt>
      <trkpt lat="47.18144" lon="-1.68148">
        <ele>24</ele>
        <time>2015-04-08T17:07:01Z</time>
      </trkpt>
      <trkpt lat="47.18161" lon="-1.68172">
        <ele>26</ele>
        <time>2015-04-08T17:07:09Z</time>
      </trkpt>
      <trkpt lat="47.18165" lon="-1.68177">
        <ele>23</ele>
        <time>2015-04-08T17:07:11Z</time>
      </trkpt>
      <trkpt lat="47.18177" lon="-1.68197">
        <ele>26</ele>
        <time>2015-04-08T17:07:18Z</time>
      </trkpt>
      <trkpt lat="47.18188" lon="-1.68217">
        <ele>25</ele>
        <time>2015-04-08T17:07:25Z</time>
      </trkpt>
      <trkpt lat="47.1819" lon="-1.68223">
        <ele>23</ele>
        <time>2015-04-08T17:07:27Z</time>
      </trkpt>
      <trkpt lat="47.182" lon="-1.68245">
        <ele>27</ele>
        <time>2015-04-08T17:07:34Z</time>
      </trkpt>
      <trkpt lat="47.18203" lon="-1.68252">
        <ele>25</ele>
        <time>2015-04-08T17:07:36Z</time>
      </trkpt>
      <trkpt lat="47.18212" lon="-1.68265">
        <ele>23</ele>
        <time>2015-04-08T17:07:41Z</time>
      </trkpt>
      <trkpt lat="47.18219" lon="-1.68277">
        <ele>22</ele>
        <time>2015-04-08T17:07:46Z</time>
      </trkpt>
      <trkpt lat="47.18227" lon="-1.6829">
        <ele>22</ele>
        <time>2015-04-08T17:07:51Z</time>
      </trkpt>
      <trkpt lat="47.1824" lon="-1.68315">
        <ele>19</ele>
        <time>2015-04-08T17:08:00Z</time>
      </trkpt>
      <trkpt lat="47.18247" lon="-1.68331">
        <ele>14</ele>
        <time>2015-04-08T17:08:05Z</time>
      </trkpt>
      <trkpt lat="47.18253" lon="-1.68343">
        <ele>13</ele>
        <time>2015-04-08T17:08:09Z</time>
      </trkpt>
      <trkpt lat="47.18257" lon="-1.68348">
        <ele>16</ele>
        <time>2015-04-08T17:08:11Z</time>
      </trkpt>
      <trkpt lat="47.18271" lon="-1.68368">
        <ele>18</ele>
        <time>2015-04-08T17:08:18Z</time>
      </trkpt>
      <trkpt lat="47.18275" lon="-1.68377">
        <ele>17</ele>
        <time>2015-04-08T17:08:21Z</time>
      </trkpt>
      <trkpt lat="47.18287" lon="-1.68405">
        <ele>20</ele>
        <time>2015-04-08T17:08:30Z</time>
      </trkpt>
      <trkpt lat="47.18291" lon="-1.68419">
        <ele>24</ele>
        <time>2015-04-08T17:08:34Z</time>
      </trkpt>
      <trkpt lat="47.18293" lon="-1.68427">
        <ele>25</ele>
        <time>2015-04-08T17:08:36Z</time>
      </trkpt>
      <trkpt lat="47.18298" lon="-1.68461">
        <ele>21</ele>
        <time>2015-04-08T17:08:45Z</time>
      </trkpt>
      <trkpt lat="47.183" lon="-1.68469">
        <ele>23</ele>
        <time>2015-04-08T17:08:47Z</time>
      </trkpt>
      <trkpt lat="47.18299" lon="-1.68484">
        <ele>22</ele>
        <time>2015-04-08T17:08:51Z</time>
      </trkpt>
      <trkpt lat="47.18298" lon="-1.68503">
        <ele>22</ele>
        <time>2015-04-08T17:08:56Z</time>
      </trkpt>
      <trkpt lat="47.18294" lon="-1.68533">
        <ele>16</ele>
        <time>2015-04-08T17:09:04Z</time>
      </trkpt>
      <trkpt lat="47.18293" lon="-1.68541">
        <ele>16</ele>
        <time>2015-04-08T17:09:06Z</time>
      </trkpt>
      <trkpt lat="47.18288" lon="-1.68558">
        <ele>17</ele>
        <time>2015-04-08T17:09:11Z</time>
      </trkpt>
      <trkpt lat="47.18282" lon="-1.68584">
        <ele>19</ele>
        <time>2015-04-08T17:09:19Z</time>
      </trkpt>
      <trkpt lat="47.1828" lon="-1.6859">
        <ele>21</ele>
        <time>2015-04-08T17:09:21Z</time>
      </trkpt>
      <trkpt lat="47.18273" lon="-1.68605">
        <ele>23</ele>
        <time>2015-04-08T17:09:26Z</time>
      </trkpt>
      <trkpt lat="47.18262" lon="-1.68633">
        <ele>23</ele>
        <time>2015-04-08T17:09:34Z</time>
      </trkpt>
      <trkpt lat="47.18257" lon="-1.6865">
        <ele>23</ele>
        <time>2015-04-08T17:09:39Z</time>
      </trkpt>
      <trkpt lat="47.18254" lon="-1.68664">
        <ele>20</ele>
        <time>2015-04-08T17:09:43Z</time>
      </trkpt>
      <trkpt lat="47.18254" lon="-1.68675">
        <ele>19</ele>
        <time>2015-04-08T17:09:46Z</time>
      </trkpt>
      <trkpt lat="47.18252" lon="-1.68695">
        <ele>19</ele>
        <time>2015-04-08T17:09:51Z</time>
      </trkpt>
      <trkpt lat="47.18253" lon="-1.68728">
        <ele>18</ele>
        <time>2015-04-08T17:09:59Z</time>
      </trkpt>
      <trkpt lat="47.18253" lon="-1.6874">
        <ele>17</ele>
        <time>2015-04-08T17:10:02Z</time>
      </trkpt>
      <trkpt lat="47.18256" lon="-1.68768">
        <ele>15</ele>
        <time>2015-04-08T17:10:10Z</time>
      </trkpt>
      <trkpt lat="47.18257" lon="-1.68772">
        <ele>15</ele>
        <time>2015-04-08T17:10:11Z</time>
      </trkpt>
      <trkpt lat="47.18259" lon="-1.68792">
        <ele>17</ele>
        <time>2015-04-08T17:10:16Z</time>
      </trkpt>
      <trkpt lat="47.18258" lon="-1.68812">
        <ele>19</ele>
        <time>2015-04-08T17:10:21Z</time>
      </trkpt>
      <trkpt lat="47.18257" lon="-1.68835">
        <ele>20</ele>
        <time>2015-04-08T17:10:27Z</time>
      </trkpt>
      <trkpt lat="47.18256" lon="-1.68851">
        <ele>19</ele>
        <time>2015-04-08T17:10:31Z</time>
      </trkpt>
      <trkpt lat="47.18254" lon="-1.68877">
        <ele>21</ele>
        <time>2015-04-08T17:10:37Z</time>
      </trkpt>
      <trkpt lat="47.18253" lon="-1.68893">
        <ele>20</ele>
        <time>2015-04-08T17:10:41Z</time>
      </trkpt>
      <trkpt lat="47.18254" lon="-1.68919">
        <ele>22</ele>
        <time>2015-04-08T17:10:48Z</time>
      </trkpt>
      <trkpt lat="47.18254" lon="-1.6893">
        <ele>21</ele>
        <time>2015-04-08T17:10:51Z</time>
      </trkpt>
      <trkpt lat="47.18255" lon="-1.6895">
        <ele>20</ele>
        <time>2015-04-08T17:10:56Z</time>
      </trkpt>
      <trkpt lat="47.18257" lon="-1.68982">
        <ele>24</ele>
        <time>2015-04-08T17:11:05Z</time>
      </trkpt>
      <trkpt lat="47.18257" lon="-1.69002">
        <ele>21</ele>
        <time>2015-04-08T17:11:10Z</time>
      </trkpt>
      <trkpt lat="47.18258" lon="-1.69006">
        <ele>22</ele>
        <time>2015-04-08T17:11:11Z</time>
      </trkpt>
      <trkpt lat="47.18259" lon="-1.69022">
        <ele>23</ele>
        <time>2015-04-08T17:11:16Z</time>
      </trkpt>
      <trkpt lat="47.18263" lon="-1.69052">
        <ele>21</ele>
        <time>2015-04-08T17:11:25Z</time>
      </trkpt>
      <trkpt lat="47.18263" lon="-1.69055">
        <ele>20</ele>
        <time>2015-04-08T17:11:26Z</time>
      </trkpt>
      <trkpt lat="47.18266" lon="-1.69074">
        <ele>24</ele>
        <time>2015-04-08T17:11:31Z</time>
      </trkpt>
      <trkpt lat="47.18271" lon="-1.69099">
        <ele>21</ele>
        <time>2015-04-08T17:11:39Z</time>
      </trkpt>
      <trkpt lat="47.18272" lon="-1.69106">
        <ele>22</ele>
        <time>2015-04-08T17:11:41Z</time>
      </trkpt>
      <trkpt lat="47.18278" lon="-1.69136">
        <ele>23</ele>
        <time>2015-04-08T17:11:49Z</time>
      </trkpt>
      <trkpt lat="47.18279" lon="-1.69148">
        <ele>25</ele>
        <time>2015-04-08T17:11:52Z</time>
      </trkpt>
      <trkpt lat="47.18281" lon="-1.69171">
        <ele>24</ele>
        <time>2015-04-08T17:11:58Z</time>
      </trkpt>
      <trkpt lat="47.18282" lon="-1.69188">
        <ele>27</ele>
        <time>2015-04-08T17:12:03Z</time>
      </trkpt>
      <trkpt lat="47.18283" lon="-1.69198">
        <ele>22</ele>
        <time>2015-04-08T17:12:06Z</time>
      </trkpt>
      <trkpt lat="47.18283" lon="-1.69225">
        <ele>22</ele>
        <time>2015-04-08T17:12:13Z</time>
      </trkpt>
      <trkpt lat="47.18287" lon="-1.69252">
        <ele>24</ele>
        <time>2015-04-08T17:12:20Z</time>
      </trkpt>
      <trkpt lat="47.18287" lon="-1.69259">
        <ele>23</ele>
        <time>2015-04-08T17:12:22Z</time>
      </trkpt>
      <trkpt lat="47.18293" lon="-1.69287">
        <ele>24</ele>
        <time>2015-04-08T17:12:30Z</time>
      </trkpt>
      <trkpt lat="47.18296" lon="-1.69303">
        <ele>22</ele>
        <time>2015-04-08T17:12:35Z</time>
      </trkpt>
      <trkpt lat="47.18299" lon="-1.69317">
        <ele>24</ele>
        <time>2015-04-08T17:12:39Z</time>
      </trkpt>
      <trkpt lat="47.183" lon="-1.69324">
        <ele>23</ele>
        <time>2015-04-08T17:12:41Z</time>
      </trkpt>
      <trkpt lat="47.18303" lon="-1.69338">
        <ele>22</ele>
        <time>2015-04-08T17:12:46Z</time>
      </trkpt>
      <trkpt lat="47.1831" lon="-1.69364">
        <ele>20</ele>
        <time>2015-04-08T17:12:54Z</time>
      </trkpt>
      <trkpt lat="47.18313" lon="-1.69374">
        <ele>22</ele>
        <time>2015-04-08T17:12:57Z</time>
      </trkpt>
      <trkpt lat="47.18313" lon="-1.6939">
        <ele>22</ele>
        <time>2015-04-08T17:13:01Z</time>
      </trkpt>
      <trkpt lat="47.18317" lon="-1.69414">
        <ele>25</ele>
        <time>2015-04-08T17:13:07Z</time>
      </trkpt>
      <trkpt lat="47.18322" lon="-1.69444">
        <ele>27</ele>
        <time>2015-04-08T17:13:15Z</time>
      </trkpt>
      <trkpt lat="47.18324" lon="-1.69451">
        <ele>27</ele>
        <time>2015-04-08T17:13:17Z</time>
      </trkpt>
      <trkpt lat="47.18325" lon="-1.6947">
        <ele>27</ele>
        <time>2015-04-08T17:13:22Z</time>
      </trkpt>
      <trkpt lat="47.18329" lon="-1.69492">
        <ele>25</ele>
        <time>2015-04-08T17:13:28Z</time>
      </trkpt>
      <trkpt lat="47.1833" lon="-1.69504">
        <ele>24</ele>
        <time>2015-04-08T17:13:31Z</time>
      </trkpt>
      <trkpt lat="47.18332" lon="-1.6953">
        <ele>25</ele>
        <time>2015-04-08T17:13:37Z</time>
      </trkpt>
      <trkpt lat="47.18335" lon="-1.69542">
        <ele>25</ele>
        <time>2015-04-08T17:13:41Z</time>
      </trkpt>
      <trkpt lat="47.18338" lon="-1.69563">
        <ele>27</ele>
        <time>2015-04-08T17:13:48Z</time>
      </trkpt>
      <trkpt lat="47.18338" lon="-1.6959">
        <ele>27</ele>
        <time>2015-04-08T17:13:54Z</time>
      </trkpt>
      <trkpt lat="47.18337" lon="-1.69608">
        <ele>28</ele>
        <time>2015-04-08T17:13:58Z</time>
      </trkpt>
      <trkpt lat="47.18335" lon="-1.69627">
        <ele>26</ele>
        <time>2015-04-08T17:14:03Z</time>
      </trkpt>
      <trkpt lat="47.18333" lon="-1.69648">
        <ele>28</ele>
        <time>2015-04-08T17:14:08Z</time>
      </trkpt>
      <trkpt lat="47.18332" lon="-1.69659">
        <ele>27</ele>
        <time>2015-04-08T17:14:11Z</time>
      </trkpt>
      <trkpt lat="47.18331" lon="-1.69686">
        <ele>27</ele>
        <time>2015-04-08T17:14:18Z</time>
      </trkpt>
      <trkpt lat="47.18331" lon="-1.69699">
        <ele>26</ele>
        <time>2015-04-08T17:14:21Z</time>
      </trkpt>
      <trkpt lat="47.18333" lon="-1.69726">
        <ele>23</ele>
        <time>2015-04-08T17:14:28Z</time>
      </trkpt>
      <trkpt lat="47.18334" lon="-1.69737">
        <ele>21</ele>
        <time>2015-04-08T17:14:31Z</time>
      </trkpt>
      <trkpt lat="47.18335" lon="-1.69757">
        <ele>23</ele>
        <time>2015-04-08T17:14:36Z</time>
      </trkpt>
      <trkpt lat="47.18347" lon="-1.69772">
        <ele>21</ele>
        <time>2015-04-08T17:14:42Z</time>
      </trkpt>
      <trkpt lat="47.18364" lon="-1.6977">
        <ele>20</ele>
        <time>2015-04-08T17:14:49Z</time>
      </trkpt>
      <trkpt lat="47.18369" lon="-1.6977">
        <ele>20</ele>
        <time>2015-04-08T17:14:51Z</time>
      </trkpt>
      <trkpt lat="47.18385" lon="-1.69768">
        <ele>20</ele>
        <time>2015-04-08T17:14:57Z</time>
      </trkpt>
      <trkpt lat="47.18398" lon="-1.69764">
        <ele>19</ele>
        <time>2015-04-08T17:15:02Z</time>
      </trkpt>
      <trkpt lat="47.18414" lon="-1.69754">
        <ele>17</ele>
        <time>2015-04-08T17:15:09Z</time>
      </trkpt>
      <trkpt lat="47.18421" lon="-1.69749">
        <ele>17</ele>
        <time>2015-04-08T17:15:12Z</time>
      </trkpt>
      <trkpt lat="47.18431" lon="-1.69741">
        <ele>18</ele>
        <time>2015-04-08T17:15:17Z</time>
      </trkpt>
      <trkpt lat="47.18439" lon="-1.69732">
        <ele>19</ele>
        <time>2015-04-08T17:15:21Z</time>
      </trkpt>
      <trkpt lat="47.18454" lon="-1.69717">
        <ele>21</ele>
        <time>2015-04-08T17:15:28Z</time>
      </trkpt>
      <trkpt lat="47.18467" lon="-1.69699">
        <ele>22</ele>
        <time>2015-04-08T17:15:35Z</time>
      </trkpt>
      <trkpt lat="47.18469" lon="-1.69697">
        <ele>22</ele>
        <time>2015-04-08T17:15:36Z</time>
      </trkpt>
      <trkpt lat="47.18477" lon="-1.69684">
        <ele>24</ele>
        <time>2015-04-08T17:15:41Z</time>
      </trkpt>
      <trkpt lat="47.18488" lon="-1.69673">
        <ele>24</ele>
        <time>2015-04-08T17:15:46Z</time>
      </trkpt>
      <trkpt lat="47.18501" lon="-1.69659">
        <ele>26</ele>
        <time>2015-04-08T17:15:52Z</time>
      </trkpt>
      <trkpt lat="47.18516" lon="-1.69643">
        <ele>27</ele>
        <time>2015-04-08T17:15:59Z</time>
      </trkpt>
      <trkpt lat="47.18529" lon="-1.6963">
        <ele>25</ele>
        <time>2015-04-08T17:16:04Z</time>
      </trkpt>
      <trkpt lat="47.18533" lon="-1.69625">
        <ele>25</ele>
        <time>2015-04-08T17:16:06Z</time>
      </trkpt>
      <trkpt lat="47.18546" lon="-1.6961">
        <ele>23</ele>
        <time>2015-04-08T17:16:14Z</time>
      </trkpt>
      <trkpt lat="47.18549" lon="-1.69607">
        <ele>22</ele>
        <time>2015-04-08T17:16:16Z</time>
      </trkpt>
      <trkpt lat="47.18558" lon="-1.69598">
        <ele>23</ele>
        <time>2015-04-08T17:16:21Z</time>
      </trkpt>
      <trkpt lat="47.1858" lon="-1.69599">
        <ele>21</ele>
        <time>2015-04-08T17:16:30Z</time>
      </trkpt>
      <trkpt lat="47.18582" lon="-1.69601">
        <ele>22</ele>
        <time>2015-04-08T17:16:31Z</time>
      </trkpt>
      <trkpt lat="47.18597" lon="-1.69592">
        <ele>21</ele>
        <time>2015-04-08T17:16:38Z</time>
      </trkpt>
      <trkpt lat="47.18604" lon="-1.69584">
        <ele>20</ele>
        <time>2015-04-08T17:16:42Z</time>
      </trkpt>
      <trkpt lat="47.18611" lon="-1.69576">
        <ele>18</ele>
        <time>2015-04-08T17:16:46Z</time>
      </trkpt>
      <trkpt lat="47.18627" lon="-1.6956">
        <ele>20</ele>
        <time>2015-04-08T17:16:54Z</time>
      </trkpt>
      <trkpt lat="47.18631" lon="-1.69556">
        <ele>19</ele>
        <time>2015-04-08T17:16:56Z</time>
      </trkpt>
      <trkpt lat="47.18641" lon="-1.69545">
        <ele>20</ele>
        <time>2015-04-08T17:17:01Z</time>
      </trkpt>
      <trkpt lat="47.18661" lon="-1.69526">
        <ele>17</ele>
        <time>2015-04-08T17:17:10Z</time>
      </trkpt>
      <trkpt lat="47.18665" lon="-1.69523">
        <ele>19</ele>
        <time>2015-04-08T17:17:12Z</time>
      </trkpt>
      <trkpt lat="47.18672" lon="-1.69514">
        <ele>17</ele>
        <time>2015-04-08T17:17:16Z</time>
      </trkpt>
      <trkpt lat="47.1868" lon="-1.69494">
        <ele>20</ele>
        <time>2015-04-08T17:17:22Z</time>
      </trkpt>
      <trkpt lat="47.18678" lon="-1.69475">
        <ele>19</ele>
        <time>2015-04-08T17:17:27Z</time>
      </trkpt>
      <trkpt lat="47.18674" lon="-1.69461">
        <ele>19</ele>
        <time>2015-04-08T17:17:31Z</time>
      </trkpt>
      <trkpt lat="47.18672" lon="-1.69435">
        <ele>18</ele>
        <time>2015-04-08T17:17:38Z</time>
      </trkpt>
      <trkpt lat="47.18685" lon="-1.69422">
        <ele>17</ele>
        <time>2015-04-08T17:17:44Z</time>
      </trkpt>
      <trkpt lat="47.18689" lon="-1.69419">
        <ele>16</ele>
        <time>2015-04-08T17:17:46Z</time>
      </trkpt>
      <trkpt lat="47.18701" lon="-1.69414">
        <ele>17</ele>
        <time>2015-04-08T17:17:51Z</time>
      </trkpt>
      <trkpt lat="47.18713" lon="-1.69409">
        <ele>14</ele>
        <time>2015-04-08T17:17:56Z</time>
      </trkpt>
      <trkpt lat="47.18724" lon="-1.694">
        <ele>17</ele>
        <time>2015-04-08T17:18:01Z</time>
      </trkpt>
      <trkpt lat="47.18736" lon="-1.69393">
        <ele>17</ele>
        <time>2015-04-08T17:18:06Z</time>
      </trkpt>
      <trkpt lat="47.18745" lon="-1.69381">
        <ele>15</ele>
        <time>2015-04-08T17:18:11Z</time>
      </trkpt>
      <trkpt lat="47.18755" lon="-1.6937">
        <ele>15</ele>
        <time>2015-04-08T17:18:16Z</time>
      </trkpt>
      <trkpt lat="47.18767" lon="-1.69355">
        <ele>13</ele>
        <time>2015-04-08T17:18:21Z</time>
      </trkpt>
      <trkpt lat="47.18785" lon="-1.69338">
        <ele>14</ele>
        <time>2015-04-08T17:18:29Z</time>
      </trkpt>
      <trkpt lat="47.1879" lon="-1.69334">
        <ele>12</ele>
        <time>2015-04-08T17:18:31Z</time>
      </trkpt>
      <trkpt lat="47.18807" lon="-1.69325">
        <ele>10</ele>
        <time>2015-04-08T17:18:39Z</time>
      </trkpt>
      <trkpt lat="47.18812" lon="-1.69322">
        <ele>11</ele>
        <time>2015-04-08T17:18:41Z</time>
      </trkpt>
      <trkpt lat="47.18827" lon="-1.69315">
        <ele>10</ele>
        <time>2015-04-08T17:18:47Z</time>
      </trkpt>
      <trkpt lat="47.18851" lon="-1.69304">
        <ele>11</ele>
        <time>2015-04-08T17:18:55Z</time>
      </trkpt>
      <trkpt lat="47.18854" lon="-1.69303">
        <ele>10</ele>
        <time>2015-04-08T17:18:56Z</time>
      </trkpt>
      <trkpt lat="47.18875" lon="-1.69289">
        <ele>12</ele>
        <time>2015-04-08T17:19:05Z</time>
      </trkpt>
      <trkpt lat="47.18882" lon="-1.69285">
        <ele>13</ele>
        <time>2015-04-08T17:19:09Z</time>
      </trkpt>
      <trkpt lat="47.18893" lon="-1.69279">
        <ele>15</ele>
        <time>2015-04-08T17:19:14Z</time>
      </trkpt>
      <trkpt lat="47.18899" lon="-1.69276">
        <ele>14</ele>
        <time>2015-04-08T17:19:17Z</time>
      </trkpt>
      <trkpt lat="47.18907" lon="-1.69271">
        <ele>16</ele>
        <time>2015-04-08T17:19:21Z</time>
      </trkpt>
      <trkpt lat="47.18919" lon="-1.69264">
        <ele>19</ele>
        <time>2015-04-08T17:19:26Z</time>
      </trkpt>
      <trkpt lat="47.18934" lon="-1.69257">
        <ele>19</ele>
        <time>2015-04-08T17:19:32Z</time>
      </trkpt>
      <trkpt lat="47.18945" lon="-1.69255">
        <ele>19</ele>
        <time>2015-04-08T17:19:36Z</time>
      </trkpt>
      <trkpt lat="47.18957" lon="-1.69242">
        <ele>18</ele>
        <time>2015-04-08T17:19:42Z</time>
      </trkpt>
      <trkpt lat="47.18962" lon="-1.69231">
        <ele>19</ele>
        <time>2015-04-08T17:19:46Z</time>
      </trkpt>
      <trkpt lat="47.18971" lon="-1.69222">
        <ele>21</ele>
        <time>2015-04-08T17:19:53Z</time>
      </trkpt>
      <trkpt lat="47.18964" lon="-1.69197">
        <ele>22</ele>
        <time>2015-04-08T17:20:00Z</time>
      </trkpt>
      <trkpt lat="47.18961" lon="-1.69191">
        <ele>20</ele>
        <time>2015-04-08T17:20:02Z</time>
      </trkpt>
      <trkpt lat="47.18955" lon="-1.69172">
        <ele>11</ele>
        <time>2015-04-08T17:20:10Z</time>
      </trkpt>
      <trkpt lat="47.18951" lon="-1.69166">
        <ele>10</ele>
        <time>2015-04-08T17:20:13Z</time>
      </trkpt>
      <trkpt lat="47.18944" lon="-1.69157">
        <ele>5</ele>
        <time>2015-04-08T17:20:18Z</time>
      </trkpt>
      <trkpt lat="47.18944" lon="-1.69146">
        <ele>8</ele>
        <time>2015-04-08T17:20:21Z</time>
      </trkpt>
      <trkpt lat="47.18948" lon="-1.69129">
        <ele>10</ele>
        <time>2015-04-08T17:20:26Z</time>
      </trkpt>
      <trkpt lat="47.18958" lon="-1.69103">
        <ele>20</ele>
        <time>2015-04-08T17:20:34Z</time>
      </trkpt>
      <trkpt lat="47.1896" lon="-1.69097">
        <ele>22</ele>
        <time>2015-04-08T17:20:36Z</time>
      </trkpt>
      <trkpt lat="47.18976" lon="-1.69085">
        <ele>22</ele>
        <time>2015-04-08T17:20:44Z</time>
      </trkpt>
      <trkpt lat="47.18981" lon="-1.6908">
        <ele>19</ele>
        <time>2015-04-08T17:20:47Z</time>
      </trkpt>
      <trkpt lat="47.18994" lon="-1.69073">
        <ele>18</ele>
        <time>2015-04-08T17:20:53Z</time>
      </trkpt>
      <trkpt lat="47.19004" lon="-1.69063">
        <ele>19</ele>
        <time>2015-04-08T17:20:59Z</time>
      </trkpt>
      <trkpt lat="47.19002" lon="-1.69049">
        <ele>20</ele>
        <time>2015-04-08T17:21:03Z</time>
      </trkpt>
      <trkpt lat="47.19" lon="-1.69036">
        <ele>21</ele>
        <time>2015-04-08T17:21:07Z</time>
      </trkpt>
      <trkpt lat="47.18997" lon="-1.69016">
        <ele>24</ele>
        <time>2015-04-08T17:21:13Z</time>
      </trkpt>
      <trkpt lat="47.18995" lon="-1.69007">
        <ele>23</ele>
        <time>2015-04-08T17:21:16Z</time>
      </trkpt>
      <trkpt lat="47.18993" lon="-1.6899">
        <ele>25</ele>
        <time>2015-04-08T17:21:21Z</time>
      </trkpt>
      <trkpt lat="47.1899" lon="-1.68969">
        <ele>24</ele>
        <time>2015-04-08T17:21:27Z</time>
      </trkpt>
      <trkpt lat="47.18987" lon="-1.6895">
        <ele>23</ele>
        <time>2015-04-08T17:21:33Z</time>
      </trkpt>
      <trkpt lat="47.18982" lon="-1.68928">
        <ele>27</ele>
        <time>2015-04-08T17:21:39Z</time>
      </trkpt>
      <trkpt lat="47.18978" lon="-1.68913">
        <ele>27</ele>
        <time>2015-04-08T17:21:43Z</time>
      </trkpt>
      <trkpt lat="47.18974" lon="-1.68896">
        <ele>27</ele>
        <time>2015-04-08T17:21:48Z</time>
      </trkpt>
      <trkpt lat="47.18967" lon="-1.68876">
        <ele>28</ele>
        <time>2015-04-08T17:21:54Z</time>
      </trkpt>
      <trkpt lat="47.18965" lon="-1.68869">
        <ele>28</ele>
        <time>2015-04-08T17:21:56Z</time>
      </trkpt>
      <trkpt lat="47.18961" lon="-1.68852">
        <ele>26</ele>
        <time>2015-04-08T17:22:01Z</time>
      </trkpt>
      <trkpt lat="47.18953" lon="-1.68828">
        <ele>26</ele>
        <time>2015-04-08T17:22:08Z</time>
      </trkpt>
      <trkpt lat="47.18948" lon="-1.68811">
        <ele>27</ele>
        <time>2015-04-08T17:22:13Z</time>
      </trkpt>
      <trkpt lat="47.18943" lon="-1.68798">
        <ele>24</ele>
        <time>2015-04-08T17:22:17Z</time>
      </trkpt>
      <trkpt lat="47.18939" lon="-1.68782">
        <ele>26</ele>
        <time>2015-04-08T17:22:22Z</time>
      </trkpt>
      <trkpt lat="47.18935" lon="-1.68756">
        <ele>26</ele>
        <time>2015-04-08T17:22:29Z</time>
      </trkpt>
      <trkpt lat="47.18934" lon="-1.68739">
        <ele>25</ele>
        <time>2015-04-08T17:22:34Z</time>
      </trkpt>
      <trkpt lat="47.18935" lon="-1.68733">
        <ele>22</ele>
        <time>2015-04-08T17:22:36Z</time>
      </trkpt>
      <trkpt lat="47.18936" lon="-1.68716">
        <ele>23</ele>
        <time>2015-04-08T17:22:41Z</time>
      </trkpt>
      <trkpt lat="47.18936" lon="-1.68699">
        <ele>25</ele>
        <time>2015-04-08T17:22:46Z</time>
      </trkpt>
      <trkpt lat="47.18938" lon="-1.68668">
        <ele>25</ele>
        <time>2015-04-08T17:22:55Z</time>
      </trkpt>
      <trkpt lat="47.18935" lon="-1.68648">
        <ele>27</ele>
        <time>2015-04-08T17:23:00Z</time>
      </trkpt>
      <trkpt lat="47.18934" lon="-1.68645">
        <ele>27</ele>
        <time>2015-04-08T17:23:01Z</time>
      </trkpt>
      <trkpt lat="47.18926" lon="-1.68619">
        <ele>29</ele>
        <time>2015-04-08T17:23:09Z</time>
      </trkpt>
      <trkpt lat="47.18924" lon="-1.68614">
        <ele>27</ele>
        <time>2015-04-08T17:23:11Z</time>
      </trkpt>
      <trkpt lat="47.18917" lon="-1.68599">
        <ele>25</ele>
        <time>2015-04-08T17:23:17Z</time>
      </trkpt>
      <trkpt lat="47.18908" lon="-1.68577">
        <ele>22</ele>
        <time>2015-04-08T17:23:25Z</time>
      </trkpt>
      <trkpt lat="47.18907" lon="-1.68574">
        <ele>22</ele>
        <time>2015-04-08T17:23:26Z</time>
      </trkpt>
      <trkpt lat="47.18905" lon="-1.68559">
        <ele>21</ele>
        <time>2015-04-08T17:23:31Z</time>
      </trkpt>
      <trkpt lat="47.189" lon="-1.68544">
        <ele>21</ele>
        <time>2015-04-08T17:23:36Z</time>
      </trkpt>
      <trkpt lat="47.18898" lon="-1.68527">
        <ele>20</ele>
        <time>2015-04-08T17:23:41Z</time>
      </trkpt>
      <trkpt lat="47.18894" lon="-1.68499">
        <ele>19</ele>
        <time>2015-04-08T17:23:49Z</time>
      </trkpt>
      <trkpt lat="47.18893" lon="-1.68488">
        <ele>17</ele>
        <time>2015-04-08T17:23:52Z</time>
      </trkpt>
      <trkpt lat="47.18883" lon="-1.6848">
        <ele>19</ele>
        <time>2015-04-08T17:23:58Z</time>
      </trkpt>
      <trkpt lat="47.18868" lon="-1.68482">
        <ele>23</ele>
        <time>2015-04-08T17:24:04Z</time>
      </trkpt>
      <trkpt lat="47.18858" lon="-1.68485">
        <ele>22</ele>
        <time>2015-04-08T17:24:08Z</time>
      </trkpt>
      <trkpt lat="47.18844" lon="-1.68491">
        <ele>21</ele>
        <time>2015-04-08T17:24:14Z</time>
      </trkpt>
      <trkpt lat="47.18839" lon="-1.68494">
        <ele>24</ele>
        <time>2015-04-08T17:24:16Z</time>
      </trkpt>
      <trkpt lat="47.18827" lon="-1.68503">
        <ele>25</ele>
        <time>2015-04-08T17:24:21Z</time>
      </trkpt>
      <trkpt lat="47.18809" lon="-1.68514">
        <ele>26</ele>
        <time>2015-04-08T17:24:29Z</time>
      </trkpt>
      <trkpt lat="47.18804" lon="-1.68517">
        <ele>27</ele>
        <time>2015-04-08T17:24:31Z</time>
      </trkpt>
      <trkpt lat="47.18784" lon="-1.68528">
        <ele>26</ele>
        <time>2015-04-08T17:24:39Z</time>
      </trkpt>
      <trkpt lat="47.18768" lon="-1.68534">
        <ele>25</ele>
        <time>2015-04-08T17:24:45Z</time>
      </trkpt>
      <trkpt lat="47.18765" lon="-1.68535">
        <ele>26</ele>
        <time>2015-04-08T17:24:46Z</time>
      </trkpt>
      <trkpt lat="47.18746" lon="-1.68545">
        <ele>21</ele>
        <time>2015-04-08T17:24:54Z</time>
      </trkpt>
      <trkpt lat="47.1874" lon="-1.68547">
        <ele>22</ele>
        <time>2015-04-08T17:24:56Z</time>
      </trkpt>
      <trkpt lat="47.18727" lon="-1.68554">
        <ele>20</ele>
        <time>2015-04-08T17:25:01Z</time>
      </trkpt>
      <trkpt lat="47.18708" lon="-1.68566">
        <ele>22</ele>
        <time>2015-04-08T17:25:08Z</time>
      </trkpt>
      <trkpt lat="47.18706" lon="-1.68578">
        <ele>17</ele>
        <time>2015-04-08T17:25:11Z</time>
      </trkpt>
      <trkpt lat="47.18726" lon="-1.68613">
        <ele>19</ele>
        <time>2015-04-08T17:25:20Z</time>
      </trkpt>
      <trkpt lat="47.18735" lon="-1.68628">
        <ele>19</ele>
        <time>2015-04-08T17:25:24Z</time>
      </trkpt>
    </trkseg>
  </trk>
</gpx>